sensor_id;sensor_type;location;lat;lon;timestamp;P1;durP1;ratioP1;P2;durP2;ratioP2
53151;SDS011;39234;53.158;6.322;2023-04-03T00:01:39;2.50;;;0.80;;
53151;SDS011;39234;53.158;6.322;2023-04-03T00:04:05;3.80;;;1.10;;
53151;SDS011;39234;53.158;6.322;2023-04-03T00:06:31;2.03;;;0.70;;
53151;SDS011;39234;53.158;6.322;2023-04-03T00:08:58;3.05;;;1.17;;
53151;SDS011;39234;53.158;6.322;2023-04-03T00:11:24;3.38;;;0.95;;
53151;SDS011;39234;53.158;6.322;2023-04-03T00:13:51;2.08;;;0.70;;
53151;SDS011;39234;53.158;6.322;2023-04-03T00:16:17;2.72;;;0.88;;
53151;SDS011;39234;53.158;6.322;2023-04-03T00:18:43;3.13;;;0.80;;
53151;SDS011;39234;53.158;6.322;2023-04-03T00:21:10;3.00;;;0.80;;
53151;SDS011;39234;53.158;6.322;2023-04-03T00:23:38;5.05;;;0.80;;
53151;SDS011;39234;53.158;6.322;2023-04-03T00:26:04;4.07;;;1.13;;
53151;SDS011;39234;53.158;6.322;2023-04-03T00:28:30;4.32;;;0.80;;
53151;SDS011;39234;53.158;6.322;2023-04-03T00:30:56;3.83;;;0.80;;
53151;SDS011;39234;53.158;6.322;2023-04-03T00:33:23;4.28;;;0.82;;
53151;SDS011;39234;53.158;6.322;2023-04-03T00:35:49;3.47;;;0.88;;
53151;SDS011;39234;53.158;6.322;2023-04-03T00:38:16;1.90;;;0.60;;
53151;SDS011;39234;53.158;6.322;2023-04-03T00:40:44;6.95;;;1.55;;
53151;SDS011;39234;53.158;6.322;2023-04-03T00:43:13;4.93;;;1.00;;
53151;SDS011;39234;53.158;6.322;2023-04-03T00:45:41;3.33;;;0.90;;
53151;SDS011;39234;53.158;6.322;2023-04-03T00:48:13;2.72;;;0.82;;
53151;SDS011;39234;53.158;6.322;2023-04-03T00:50:43;3.97;;;1.02;;
53151;SDS011;39234;53.158;6.322;2023-04-03T00:53:17;3.30;;;0.88;;
53151;SDS011;39234;53.158;6.322;2023-04-03T00:55:47;2.22;;;0.80;;
53151;SDS011;39234;53.158;6.322;2023-04-03T01:08:36;2.38;;;0.85;;
53151;SDS011;39234;53.158;6.322;2023-04-03T01:11:02;2.88;;;0.73;;
53151;SDS011;39234;53.158;6.322;2023-04-03T01:13:30;3.67;;;0.95;;
53151;SDS011;39234;53.158;6.322;2023-04-03T01:15:57;3.90;;;0.77;;
53151;SDS011;39234;53.158;6.322;2023-04-03T01:18:27;4.63;;;1.05;;
53151;SDS011;39234;53.158;6.322;2023-04-03T01:21:40;4.57;;;1.17;;
53151;SDS011;39234;53.158;6.322;2023-04-03T01:24:05;5.68;;;1.10;;
53151;SDS011;39234;53.158;6.322;2023-04-03T01:26:43;3.72;;;0.90;;
53151;SDS011;39234;53.158;6.322;2023-04-03T01:29:09;6.30;;;1.38;;
53151;SDS011;39234;53.158;6.322;2023-04-03T01:34:24;3.13;;;1.10;;
53151;SDS011;39234;53.158;6.322;2023-04-03T01:36:50;4.20;;;1.15;;
53151;SDS011;39234;53.158;6.322;2023-04-03T01:39:17;3.45;;;1.20;;
53151;SDS011;39234;53.158;6.322;2023-04-03T01:41:44;6.00;;;1.15;;
53151;SDS011;39234;53.158;6.322;2023-04-03T01:44:10;5.80;;;1.23;;
53151;SDS011;39234;53.158;6.322;2023-04-03T01:46:36;7.68;;;1.42;;
53151;SDS011;39234;53.158;6.322;2023-04-03T01:49:03;2.67;;;0.90;;
53151;SDS011;39234;53.158;6.322;2023-04-03T01:51:29;5.55;;;1.20;;
53151;SDS011;39234;53.158;6.322;2023-04-03T01:53:55;3.10;;;1.00;;
53151;SDS011;39234;53.158;6.322;2023-04-03T01:56:22;4.93;;;1.30;;
53151;SDS011;39234;53.158;6.322;2023-04-03T01:58:48;6.05;;;1.27;;
53151;SDS011;39234;53.158;6.322;2023-04-03T02:01:14;3.60;;;1.00;;
53151;SDS011;39234;53.158;6.322;2023-04-03T02:03:41;5.88;;;1.50;;
53151;SDS011;39234;53.158;6.322;2023-04-03T02:06:07;4.25;;;1.02;;
53151;SDS011;39234;53.158;6.322;2023-04-03T02:08:33;3.85;;;1.00;;
53151;SDS011;39234;53.158;6.322;2023-04-03T02:10:59;6.43;;;1.30;;
53151;SDS011;39234;53.158;6.322;2023-04-03T02:13:26;4.30;;;1.30;;
53151;SDS011;39234;53.158;6.322;2023-04-03T02:15:52;7.38;;;1.55;;
53151;SDS011;39234;53.158;6.322;2023-04-03T02:18:18;4.38;;;1.30;;
53151;SDS011;39234;53.158;6.322;2023-04-03T02:20:44;6.50;;;1.60;;
53151;SDS011;39234;53.158;6.322;2023-04-03T02:23:11;4.65;;;0.98;;
53151;SDS011;39234;53.158;6.322;2023-04-03T02:25:37;5.93;;;1.55;;
53151;SDS011;39234;53.158;6.322;2023-04-03T02:28:03;4.88;;;1.50;;
53151;SDS011;39234;53.158;6.322;2023-04-03T02:30:30;5.18;;;1.20;;
53151;SDS011;39234;53.158;6.322;2023-04-03T02:32:56;3.30;;;1.20;;
53151;SDS011;39234;53.158;6.322;2023-04-03T02:35:22;2.95;;;0.90;;
53151;SDS011;39234;53.158;6.322;2023-04-03T02:37:48;4.90;;;1.13;;
53151;SDS011;39234;53.158;6.322;2023-04-03T02:40:14;6.50;;;1.58;;
53151;SDS011;39234;53.158;6.322;2023-04-03T02:42:40;5.65;;;1.25;;
53151;SDS011;39234;53.158;6.322;2023-04-03T02:45:07;6.03;;;1.50;;
53151;SDS011;39234;53.158;6.322;2023-04-03T02:47:32;4.50;;;1.10;;
53151;SDS011;39234;53.158;6.322;2023-04-03T02:49:59;4.63;;;1.23;;
53151;SDS011;39234;53.158;6.322;2023-04-03T02:52:25;3.92;;;1.20;;
53151;SDS011;39234;53.158;6.322;2023-04-03T02:54:51;2.90;;;1.00;;
53151;SDS011;39234;53.158;6.322;2023-04-03T02:57:17;4.53;;;1.20;;
53151;SDS011;39234;53.158;6.322;2023-04-03T02:59:44;4.03;;;1.20;;
53151;SDS011;39234;53.158;6.322;2023-04-03T03:02:10;6.53;;;1.65;;
53151;SDS011;39234;53.158;6.322;2023-04-03T03:04:37;4.88;;;1.30;;
53151;SDS011;39234;53.158;6.322;2023-04-03T03:07:03;7.47;;;1.38;;
53151;SDS011;39234;53.158;6.322;2023-04-03T03:09:29;9.73;;;2.13;;
53151;SDS011;39234;53.158;6.322;2023-04-03T03:11:55;6.25;;;1.50;;
53151;SDS011;39234;53.158;6.322;2023-04-03T03:14:22;6.35;;;1.67;;
53151;SDS011;39234;53.158;6.322;2023-04-03T03:16:48;8.25;;;1.52;;
53151;SDS011;39234;53.158;6.322;2023-04-03T03:19:14;5.55;;;1.50;;
53151;SDS011;39234;53.158;6.322;2023-04-03T03:21:40;6.90;;;1.73;;
53151;SDS011;39234;53.158;6.322;2023-04-03T03:24:07;6.30;;;1.70;;
53151;SDS011;39234;53.158;6.322;2023-04-03T03:26:32;5.80;;;1.15;;
53151;SDS011;39234;53.158;6.322;2023-04-03T03:28:59;7.45;;;1.60;;
53151;SDS011;39234;53.158;6.322;2023-04-03T03:31:25;7.72;;;1.50;;
53151;SDS011;39234;53.158;6.322;2023-04-03T03:33:51;5.75;;;2.17;;
53151;SDS011;39234;53.158;6.322;2023-04-03T03:36:17;5.60;;;1.67;;
53151;SDS011;39234;53.158;6.322;2023-04-03T03:38:43;5.75;;;1.52;;
53151;SDS011;39234;53.158;6.322;2023-04-03T03:41:09;5.65;;;1.38;;
53151;SDS011;39234;53.158;6.322;2023-04-03T03:43:35;3.60;;;1.52;;
53151;SDS011;39234;53.158;6.322;2023-04-03T03:46:01;7.70;;;1.33;;
53151;SDS011;39234;53.158;6.322;2023-04-03T03:48:27;5.60;;;1.67;;
53151;SDS011;39234;53.158;6.322;2023-04-03T03:50:53;6.18;;;1.40;;
53151;SDS011;39234;53.158;6.322;2023-04-03T03:53:20;8.60;;;2.00;;
53151;SDS011;39234;53.158;6.322;2023-04-03T03:55:46;6.80;;;1.83;;
53151;SDS011;39234;53.158;6.322;2023-04-03T03:58:12;4.97;;;2.00;;
53151;SDS011;39234;53.158;6.322;2023-04-03T04:00:38;6.88;;;1.70;;
53151;SDS011;39234;53.158;6.322;2023-04-03T04:03:04;6.53;;;1.65;;
53151;SDS011;39234;53.158;6.322;2023-04-03T04:05:30;8.02;;;1.60;;
53151;SDS011;39234;53.158;6.322;2023-04-03T04:07:56;6.72;;;1.50;;
53151;SDS011;39234;53.158;6.322;2023-04-03T04:10:22;8.60;;;2.70;;
53151;SDS011;39234;53.158;6.322;2023-04-03T04:12:49;5.68;;;2.08;;
53151;SDS011;39234;53.158;6.322;2023-04-03T04:15:16;8.32;;;1.75;;
53151;SDS011;39234;53.158;6.322;2023-04-03T04:17:43;7.88;;;1.83;;
53151;SDS011;39234;53.158;6.322;2023-04-03T04:20:09;9.75;;;2.00;;
53151;SDS011;39234;53.158;6.322;2023-04-03T04:22:35;7.30;;;1.95;;
53151;SDS011;39234;53.158;6.322;2023-04-03T04:25:02;8.73;;;2.50;;
53151;SDS011;39234;53.158;6.322;2023-04-03T04:27:28;8.95;;;2.22;;
53151;SDS011;39234;53.158;6.322;2023-04-03T04:29:54;4.72;;;1.50;;
53151;SDS011;39234;53.158;6.322;2023-04-03T04:32:20;10.07;;;2.40;;
53151;SDS011;39234;53.158;6.322;2023-04-03T04:34:46;7.63;;;1.90;;
53151;SDS011;39234;53.158;6.322;2023-04-03T04:37:13;8.85;;;2.60;;
53151;SDS011;39234;53.158;6.322;2023-04-03T04:39:39;6.50;;;2.03;;
53151;SDS011;39234;53.158;6.322;2023-04-03T04:42:05;7.40;;;2.03;;
53151;SDS011;39234;53.158;6.322;2023-04-03T04:44:32;9.27;;;1.95;;
53151;SDS011;39234;53.158;6.322;2023-04-03T04:46:58;7.15;;;1.90;;
53151;SDS011;39234;53.158;6.322;2023-04-03T04:49:24;9.13;;;2.28;;
53151;SDS011;39234;53.158;6.322;2023-04-03T04:51:50;7.80;;;2.05;;
53151;SDS011;39234;53.158;6.322;2023-04-03T04:54:16;6.07;;;1.95;;
53151;SDS011;39234;53.158;6.322;2023-04-03T04:56:43;6.88;;;2.38;;
53151;SDS011;39234;53.158;6.322;2023-04-03T04:59:09;7.05;;;2.40;;
53151;SDS011;39234;53.158;6.322;2023-04-03T05:01:35;9.45;;;2.33;;
53151;SDS011;39234;53.158;6.322;2023-04-03T05:04:01;6.80;;;2.08;;
53151;SDS011;39234;53.158;6.322;2023-04-03T05:06:27;11.80;;;3.78;;
53151;SDS011;39234;53.158;6.322;2023-04-03T05:08:55;10.85;;;2.88;;
53151;SDS011;39234;53.158;6.322;2023-04-03T05:11:21;9.05;;;2.20;;
53151;SDS011;39234;53.158;6.322;2023-04-03T05:13:47;9.77;;;2.20;;
53151;SDS011;39234;53.158;6.322;2023-04-03T05:16:13;8.50;;;2.15;;
53151;SDS011;39234;53.158;6.322;2023-04-03T05:18:40;11.35;;;4.10;;
53151;SDS011;39234;53.158;6.322;2023-04-03T05:21:06;7.40;;;2.33;;
53151;SDS011;39234;53.158;6.322;2023-04-03T05:23:32;7.03;;;2.45;;
53151;SDS011;39234;53.158;6.322;2023-04-03T05:25:58;9.20;;;3.67;;
53151;SDS011;39234;53.158;6.322;2023-04-03T05:28:24;11.27;;;2.45;;
53151;SDS011;39234;53.158;6.322;2023-04-03T05:30:54;7.22;;;2.42;;
53151;SDS011;39234;53.158;6.322;2023-04-03T05:33:21;10.60;;;2.08;;
53151;SDS011;39234;53.158;6.322;2023-04-03T05:35:47;6.28;;;2.20;;
53151;SDS011;39234;53.158;6.322;2023-04-03T05:38:13;8.88;;;2.67;;
53151;SDS011;39234;53.158;6.322;2023-04-03T05:40:40;7.13;;;2.45;;
53151;SDS011;39234;53.158;6.322;2023-04-03T05:43:06;10.07;;;2.47;;
53151;SDS011;39234;53.158;6.322;2023-04-03T05:45:32;5.57;;;2.05;;
53151;SDS011;39234;53.158;6.322;2023-04-03T05:47:58;5.07;;;1.90;;
53151;SDS011;39234;53.158;6.322;2023-04-03T05:50:24;7.15;;;2.08;;
53151;SDS011;39234;53.158;6.322;2023-04-03T05:52:50;7.10;;;2.42;;
53151;SDS011;39234;53.158;6.322;2023-04-03T05:55:20;7.25;;;2.10;;
53151;SDS011;39234;53.158;6.322;2023-04-03T05:57:46;8.07;;;2.20;;
53151;SDS011;39234;53.158;6.322;2023-04-03T06:00:12;6.40;;;1.95;;
53151;SDS011;39234;53.158;6.322;2023-04-03T06:02:40;8.13;;;2.22;;
53151;SDS011;39234;53.158;6.322;2023-04-03T06:05:07;8.18;;;2.70;;
53151;SDS011;39234;53.158;6.322;2023-04-03T06:07:33;6.72;;;1.95;;
53151;SDS011;39234;53.158;6.322;2023-04-03T06:10:00;10.15;;;2.20;;
53151;SDS011;39234;53.158;6.322;2023-04-03T06:12:26;5.45;;;2.15;;
53151;SDS011;39234;53.158;6.322;2023-04-03T06:14:54;9.27;;;2.72;;
53151;SDS011;39234;53.158;6.322;2023-04-03T06:17:20;7.82;;;2.25;;
53151;SDS011;39234;53.158;6.322;2023-04-03T06:19:46;9.27;;;2.25;;
53151;SDS011;39234;53.158;6.322;2023-04-03T06:22:12;7.90;;;2.20;;
53151;SDS011;39234;53.158;6.322;2023-04-03T06:24:38;10.15;;;2.88;;
53151;SDS011;39234;53.158;6.322;2023-04-03T06:27:04;7.53;;;2.08;;
53151;SDS011;39234;53.158;6.322;2023-04-03T06:29:30;7.95;;;2.10;;
53151;SDS011;39234;53.158;6.322;2023-04-03T06:31:56;6.28;;;2.13;;
53151;SDS011;39234;53.158;6.322;2023-04-03T06:34:21;7.38;;;2.00;;
53151;SDS011;39234;53.158;6.322;2023-04-03T06:36:47;6.70;;;2.08;;
53151;SDS011;39234;53.158;6.322;2023-04-03T06:39:19;10.10;;;2.40;;
53151;SDS011;39234;53.158;6.322;2023-04-03T06:41:47;7.93;;;2.65;;
53151;SDS011;39234;53.158;6.322;2023-04-03T06:44:13;6.30;;;2.00;;
53151;SDS011;39234;53.158;6.322;2023-04-03T06:46:41;6.28;;;2.10;;
53151;SDS011;39234;53.158;6.322;2023-04-03T06:49:07;8.65;;;2.20;;
53151;SDS011;39234;53.158;6.322;2023-04-03T06:51:34;7.30;;;2.10;;
53151;SDS011;39234;53.158;6.322;2023-04-03T06:54:00;7.10;;;2.10;;
53151;SDS011;39234;53.158;6.322;2023-04-03T06:56:27;5.63;;;1.83;;
53151;SDS011;39234;53.158;6.322;2023-04-03T06:58:53;10.50;;;3.08;;
53151;SDS011;39234;53.158;6.322;2023-04-03T07:01:22;7.22;;;2.03;;
53151;SDS011;39234;53.158;6.322;2023-04-03T07:03:50;9.63;;;2.17;;
53151;SDS011;39234;53.158;6.322;2023-04-03T07:06:16;7.50;;;2.22;;
53151;SDS011;39234;53.158;6.322;2023-04-03T07:08:42;8.43;;;2.53;;
53151;SDS011;39234;53.158;6.322;2023-04-03T07:11:09;6.18;;;1.70;;
53151;SDS011;39234;53.158;6.322;2023-04-03T07:13:36;7.32;;;2.15;;
53151;SDS011;39234;53.158;6.322;2023-04-03T07:16:02;7.40;;;2.58;;
53151;SDS011;39234;53.158;6.322;2023-04-03T07:18:30;4.55;;;1.63;;
53151;SDS011;39234;53.158;6.322;2023-04-03T07:20:56;7.25;;;2.10;;
53151;SDS011;39234;53.158;6.322;2023-04-03T07:23:22;7.05;;;2.00;;
53151;SDS011;39234;53.158;6.322;2023-04-03T07:25:48;5.88;;;2.00;;
53151;SDS011;39234;53.158;6.322;2023-04-03T07:28:16;8.63;;;2.10;;
53151;SDS011;39234;53.158;6.322;2023-04-03T07:30:47;4.55;;;1.85;;
53151;SDS011;39234;53.158;6.322;2023-04-03T07:33:15;6.32;;;1.70;;
53151;SDS011;39234;53.158;6.322;2023-04-03T07:35:42;6.78;;;1.67;;
53151;SDS011;39234;53.158;6.322;2023-04-03T07:38:08;5.18;;;1.95;;
53151;SDS011;39234;53.158;6.322;2023-04-03T07:40:35;6.63;;;2.03;;
53151;SDS011;39234;53.158;6.322;2023-04-03T07:43:02;6.82;;;1.75;;
53151;SDS011;39234;53.158;6.322;2023-04-03T07:45:29;6.13;;;1.90;;
53151;SDS011;39234;53.158;6.322;2023-04-03T07:47:55;6.53;;;1.50;;
53151;SDS011;39234;53.158;6.322;2023-04-03T07:50:20;4.60;;;1.67;;
53151;SDS011;39234;53.158;6.322;2023-04-03T07:52:47;6.20;;;1.65;;
53151;SDS011;39234;53.158;6.322;2023-04-03T07:55:13;7.63;;;1.77;;
53151;SDS011;39234;53.158;6.322;2023-04-03T07:57:39;4.60;;;1.48;;
53151;SDS011;39234;53.158;6.322;2023-04-03T08:00:05;5.63;;;1.50;;
53151;SDS011;39234;53.158;6.322;2023-04-03T08:02:32;5.50;;;1.50;;
53151;SDS011;39234;53.158;6.322;2023-04-03T08:04:58;6.50;;;1.63;;
53151;SDS011;39234;53.158;6.322;2023-04-03T08:07:24;5.10;;;1.40;;
53151;SDS011;39234;53.158;6.322;2023-04-03T08:09:50;4.20;;;1.48;;
53151;SDS011;39234;53.158;6.322;2023-04-03T08:12:16;7.22;;;1.90;;
53151;SDS011;39234;53.158;6.322;2023-04-03T08:14:42;5.82;;;1.60;;
53151;SDS011;39234;53.158;6.322;2023-04-03T08:17:08;5.82;;;1.60;;
53151;SDS011;39234;53.158;6.322;2023-04-03T08:19:37;6.13;;;1.38;;
53151;SDS011;39234;53.158;6.322;2023-04-03T08:22:03;4.38;;;1.40;;
53151;SDS011;39234;53.158;6.322;2023-04-03T08:24:30;5.65;;;1.42;;
53151;SDS011;39234;53.158;6.322;2023-04-03T08:26:57;4.03;;;1.42;;
53151;SDS011;39234;53.158;6.322;2023-04-03T08:29:23;3.50;;;1.15;;
53151;SDS011;39234;53.158;6.322;2023-04-03T08:31:49;4.72;;;1.60;;
53151;SDS011;39234;53.158;6.322;2023-04-03T08:34:15;3.88;;;1.15;;
53151;SDS011;39234;53.158;6.322;2023-04-03T08:36:41;6.05;;;1.33;;
53151;SDS011;39234;53.158;6.322;2023-04-03T08:39:08;4.30;;;1.23;;
53151;SDS011;39234;53.158;6.322;2023-04-03T08:41:35;3.83;;;1.15;;
53151;SDS011;39234;53.158;6.322;2023-04-03T08:44:24;7.32;;;1.40;;
53151;SDS011;39234;53.158;6.322;2023-04-03T08:47:04;5.32;;;1.70;;
53151;SDS011;39234;53.158;6.322;2023-04-03T08:50:02;5.30;;;1.58;;
53151;SDS011;39234;53.158;6.322;2023-04-03T08:52:38;9.90;;;1.50;;
53151;SDS011;39234;53.158;6.322;2023-04-03T08:55:29;6.65;;;1.60;;
53151;SDS011;39234;53.158;6.322;2023-04-03T08:58:02;5.05;;;1.55;;
53151;SDS011;39234;53.158;6.322;2023-04-03T09:03:12;4.78;;;1.20;;
53151;SDS011;39234;53.158;6.322;2023-04-03T09:05:42;6.05;;;1.38;;
53151;SDS011;39234;53.158;6.322;2023-04-03T09:08:27;6.03;;;1.25;;
53151;SDS011;39234;53.158;6.322;2023-04-03T09:11:41;6.25;;;1.48;;
53151;SDS011;39234;53.158;6.322;2023-04-03T09:14:08;4.57;;;1.15;;
53151;SDS011;39234;53.158;6.322;2023-04-03T09:16:43;4.18;;;1.20;;
53151;SDS011;39234;53.158;6.322;2023-04-03T09:22:18;5.38;;;1.40;;
53151;SDS011;39234;53.158;6.322;2023-04-03T09:25:13;3.13;;;1.08;;
53151;SDS011;39234;53.158;6.322;2023-04-03T09:27:39;2.70;;;1.10;;
53151;SDS011;39234;53.158;6.322;2023-04-03T09:30:05;5.20;;;1.13;;
53151;SDS011;39234;53.158;6.322;2023-04-03T09:32:36;5.20;;;1.05;;
53151;SDS011;39234;53.158;6.322;2023-04-03T09:37:44;3.28;;;1.08;;
53151;SDS011;39234;53.158;6.322;2023-04-03T09:40:27;2.40;;;0.98;;
53151;SDS011;39234;53.158;6.322;2023-04-03T09:43:00;3.97;;;0.88;;
53151;SDS011;39234;53.158;6.322;2023-04-03T09:45:29;4.45;;;1.13;;
53151;SDS011;39234;53.158;6.322;2023-04-03T09:50:38;2.67;;;1.00;;
53151;SDS011;39234;53.158;6.322;2023-04-03T09:53:07;5.18;;;1.00;;
53151;SDS011;39234;53.158;6.322;2023-04-03T09:55:52;4.05;;;1.10;;
53151;SDS011;39234;53.158;6.322;2023-04-03T09:58:28;4.93;;;1.20;;
53151;SDS011;39234;53.158;6.322;2023-04-03T10:00:58;5.43;;;1.00;;
53151;SDS011;39234;53.158;6.322;2023-04-03T10:03:30;2.28;;;0.90;;
53151;SDS011;39234;53.158;6.322;2023-04-03T10:05:59;2.70;;;1.20;;
53151;SDS011;39234;53.158;6.322;2023-04-03T10:08:28;2.78;;;0.73;;
53151;SDS011;39234;53.158;6.322;2023-04-03T10:11:31;5.03;;;1.10;;
53151;SDS011;39234;53.158;6.322;2023-04-03T10:14:00;2.67;;;0.90;;
53151;SDS011;39234;53.158;6.322;2023-04-03T10:16:36;5.03;;;1.30;;
53151;SDS011;39234;53.158;6.322;2023-04-03T10:19:41;5.15;;;1.63;;
53151;SDS011;39234;53.158;6.322;2023-04-03T10:27:53;5.25;;;0.85;;
53151;SDS011;39234;53.158;6.322;2023-04-03T10:38:46;2.88;;;1.05;;
53151;SDS011;39234;53.158;6.322;2023-04-03T10:41:32;2.53;;;0.70;;
53151;SDS011;39234;53.158;6.322;2023-04-03T10:52:20;2.97;;;0.73;;
53151;SDS011;39234;53.158;6.322;2023-04-03T10:55:09;3.85;;;0.90;;
53151;SDS011;39234;53.158;6.322;2023-04-03T10:57:55;2.70;;;0.93;;
53151;SDS011;39234;53.158;6.322;2023-04-03T11:00:30;3.75;;;0.93;;
53151;SDS011;39234;53.158;6.322;2023-04-03T11:03:12;3.42;;;0.88;;
53151;SDS011;39234;53.158;6.322;2023-04-03T11:05:48;2.17;;;0.63;;
53151;SDS011;39234;53.158;6.322;2023-04-03T11:11:26;2.45;;;0.85;;
53151;SDS011;39234;53.158;6.322;2023-04-03T11:19:35;2.63;;;0.80;;
53151;SDS011;39234;53.158;6.322;2023-04-03T11:22:20;4.53;;;0.93;;
53151;SDS011;39234;53.158;6.322;2023-04-03T11:33:03;2.75;;;0.80;;
53151;SDS011;39234;53.158;6.322;2023-04-03T11:35:44;3.25;;;1.00;;
53151;SDS011;39234;53.158;6.322;2023-04-03T11:38:14;3.80;;;0.98;;
53151;SDS011;39234;53.158;6.322;2023-04-03T11:40:47;4.88;;;0.90;;
53151;SDS011;39234;53.158;6.322;2023-04-03T11:43:30;2.33;;;0.60;;
53151;SDS011;39234;53.158;6.322;2023-04-03T11:46:07;2.92;;;1.08;;
53151;SDS011;39234;53.158;6.322;2023-04-03T11:53:38;1.92;;;0.70;;
53151;SDS011;39234;53.158;6.322;2023-04-03T11:59:23;1.90;;;0.50;;
53151;SDS011;39234;53.158;6.322;2023-04-03T12:01:51;2.58;;;0.82;;
53151;SDS011;39234;53.158;6.322;2023-04-03T12:04:19;5.95;;;1.00;;
53151;SDS011;39234;53.158;6.322;2023-04-03T12:09:32;3.30;;;1.00;;
53151;SDS011;39234;53.158;6.322;2023-04-03T12:15:23;2.63;;;0.80;;
53151;SDS011;39234;53.158;6.322;2023-04-03T12:17:49;4.32;;;1.00;;
53151;SDS011;39234;53.158;6.322;2023-04-03T12:20:58;2.95;;;0.80;;
53151;SDS011;39234;53.158;6.322;2023-04-03T12:25:51;2.92;;;1.00;;
53151;SDS011;39234;53.158;6.322;2023-04-03T12:28:24;3.13;;;1.00;;
53151;SDS011;39234;53.158;6.322;2023-04-03T12:30:50;2.80;;;0.55;;
53151;SDS011;39234;53.158;6.322;2023-04-03T12:39:13;3.05;;;0.70;;
53151;SDS011;39234;53.158;6.322;2023-04-03T12:44:45;3.00;;;1.10;;
53151;SDS011;39234;53.158;6.322;2023-04-03T12:47:57;2.25;;;0.77;;
53151;SDS011;39234;53.158;6.322;2023-04-03T12:55:43;2.75;;;1.15;;
53151;SDS011;39234;53.158;6.322;2023-04-03T12:58:24;3.72;;;1.13;;
53151;SDS011;39234;53.158;6.322;2023-04-03T13:01:11;2.28;;;0.88;;
53151;SDS011;39234;53.158;6.322;2023-04-03T13:03:40;2.28;;;0.70;;
53151;SDS011;39234;53.158;6.322;2023-04-03T13:06:18;4.82;;;1.20;;
53151;SDS011;39234;53.158;6.322;2023-04-03T13:08:57;3.28;;;0.90;;
53151;SDS011;39234;53.158;6.322;2023-04-03T13:11:26;5.00;;;1.00;;
53151;SDS011;39234;53.158;6.322;2023-04-03T13:14:00;3.15;;;1.00;;
53151;SDS011;39234;53.158;6.322;2023-04-03T13:16:30;4.80;;;0.82;;
53151;SDS011;39234;53.158;6.322;2023-04-03T13:18:56;4.57;;;1.13;;
53151;SDS011;39234;53.158;6.322;2023-04-03T13:21:26;6.03;;;1.08;;
53151;SDS011;39234;53.158;6.322;2023-04-03T13:23:55;5.03;;;1.02;;
53151;SDS011;39234;53.158;6.322;2023-04-03T13:26:24;2.38;;;0.85;;
53151;SDS011;39234;53.158;6.322;2023-04-03T13:28:54;3.85;;;1.05;;
53151;SDS011;39234;53.158;6.322;2023-04-03T13:31:27;3.65;;;1.10;;
53151;SDS011;39234;53.158;6.322;2023-04-03T13:36:37;10.70;;;1.15;;
53151;SDS011;39234;53.158;6.322;2023-04-03T13:41:44;4.10;;;0.85;;
53151;SDS011;39234;53.158;6.322;2023-04-03T13:46:48;3.53;;;0.90;;
53151;SDS011;39234;53.158;6.322;2023-04-03T13:51:56;5.43;;;1.20;;
53151;SDS011;39234;53.158;6.322;2023-04-03T13:54:35;2.05;;;0.85;;
53151;SDS011;39234;53.158;6.322;2023-04-03T13:57:10;2.15;;;0.90;;
53151;SDS011;39234;53.158;6.322;2023-04-03T13:59:38;3.65;;;1.00;;
53151;SDS011;39234;53.158;6.322;2023-04-03T14:07:02;4.28;;;1.70;;
53151;SDS011;39234;53.158;6.322;2023-04-03T14:09:28;3.65;;;1.02;;
53151;SDS011;39234;53.158;6.322;2023-04-03T14:11:56;5.53;;;0.93;;
53151;SDS011;39234;53.158;6.322;2023-04-03T14:14:46;2.97;;;0.68;;
53151;SDS011;39234;53.158;6.322;2023-04-03T14:17:16;2.83;;;0.80;;
53151;SDS011;39234;53.158;6.322;2023-04-03T14:19:44;3.42;;;0.95;;
53151;SDS011;39234;53.158;6.322;2023-04-03T14:22:32;2.60;;;0.60;;
53151;SDS011;39234;53.158;6.322;2023-04-03T14:24:58;1.75;;;0.60;;
53151;SDS011;39234;53.158;6.322;2023-04-03T14:27:26;3.17;;;0.80;;
53151;SDS011;39234;53.158;6.322;2023-04-03T14:29:59;2.75;;;0.90;;
53151;SDS011;39234;53.158;6.322;2023-04-03T14:32:28;2.88;;;0.82;;
53151;SDS011;39234;53.158;6.322;2023-04-03T14:34:54;4.13;;;1.20;;
53151;SDS011;39234;53.158;6.322;2023-04-03T14:37:24;3.08;;;1.00;;
53151;SDS011;39234;53.158;6.322;2023-04-03T14:39:54;5.28;;;1.77;;
53151;SDS011;39234;53.158;6.322;2023-04-03T14:42:24;4.20;;;1.02;;
53151;SDS011;39234;53.158;6.322;2023-04-03T14:44:56;3.65;;;1.00;;
53151;SDS011;39234;53.158;6.322;2023-04-03T14:47:24;3.78;;;1.20;;
53151;SDS011;39234;53.158;6.322;2023-04-03T14:49:52;3.60;;;1.30;;
53151;SDS011;39234;53.158;6.322;2023-04-03T14:54:48;4.95;;;1.30;;
53151;SDS011;39234;53.158;6.322;2023-04-03T14:57:15;2.88;;;0.77;;
53151;SDS011;39234;53.158;6.322;2023-04-03T14:59:42;4.18;;;1.17;;
53151;SDS011;39234;53.158;6.322;2023-04-03T15:02:24;3.08;;;0.95;;
53151;SDS011;39234;53.158;6.322;2023-04-03T15:04:54;3.40;;;1.02;;
53151;SDS011;39234;53.158;6.322;2023-04-03T15:07:21;5.03;;;2.15;;
53151;SDS011;39234;53.158;6.322;2023-04-03T15:09:48;5.18;;;1.02;;
53151;SDS011;39234;53.158;6.322;2023-04-03T15:12:14;4.22;;;1.10;;
53151;SDS011;39234;53.158;6.322;2023-04-03T15:14:40;2.30;;;0.90;;
53151;SDS011;39234;53.158;6.322;2023-04-03T15:17:06;5.78;;;1.42;;
53151;SDS011;39234;53.158;6.322;2023-04-03T15:19:40;6.18;;;1.30;;
53151;SDS011;39234;53.158;6.322;2023-04-03T15:22:06;3.05;;;1.05;;
53151;SDS011;39234;53.158;6.322;2023-04-03T15:24:34;3.15;;;0.80;;
53151;SDS011;39234;53.158;6.322;2023-04-03T15:27:00;3.05;;;1.30;;
53151;SDS011;39234;53.158;6.322;2023-04-03T15:29:26;6.03;;;1.23;;
53151;SDS011;39234;53.158;6.322;2023-04-03T15:31:52;2.95;;;0.98;;
53151;SDS011;39234;53.158;6.322;2023-04-03T15:34:18;2.53;;;0.73;;
53151;SDS011;39234;53.158;6.322;2023-04-03T15:36:46;2.67;;;1.00;;
53151;SDS011;39234;53.158;6.322;2023-04-03T15:39:12;3.97;;;1.05;;
53151;SDS011;39234;53.158;6.322;2023-04-03T15:41:38;3.30;;;1.15;;
53151;SDS011;39234;53.158;6.322;2023-04-03T15:44:03;4.15;;;1.00;;
53151;SDS011;39234;53.158;6.322;2023-04-03T15:46:29;6.25;;;0.98;;
53151;SDS011;39234;53.158;6.322;2023-04-03T15:48:55;5.07;;;1.08;;
53151;SDS011;39234;53.158;6.322;2023-04-03T15:51:20;3.33;;;0.70;;
53151;SDS011;39234;53.158;6.322;2023-04-03T15:53:46;4.47;;;0.90;;
53151;SDS011;39234;53.158;6.322;2023-04-03T15:56:12;4.78;;;0.63;;
53151;SDS011;39234;53.158;6.322;2023-04-03T15:58:37;4.18;;;1.00;;
53151;SDS011;39234;53.158;6.322;2023-04-03T16:01:03;4.53;;;0.90;;
53151;SDS011;39234;53.158;6.322;2023-04-03T16:03:30;1.95;;;0.70;;
53151;SDS011;39234;53.158;6.322;2023-04-03T16:05:56;3.22;;;0.90;;
53151;SDS011;39234;53.158;6.322;2023-04-03T16:08:22;3.33;;;0.75;;
53151;SDS011;39234;53.158;6.322;2023-04-03T16:10:48;5.40;;;1.58;;
53151;SDS011;39234;53.158;6.322;2023-04-03T16:13:14;2.88;;;0.73;;
53151;SDS011;39234;53.158;6.322;2023-04-03T16:15:40;3.40;;;0.90;;
53151;SDS011;39234;53.158;6.322;2023-04-03T16:18:07;4.38;;;1.08;;
53151;SDS011;39234;53.158;6.322;2023-04-03T16:20:33;8.73;;;0.90;;
53151;SDS011;39234;53.158;6.322;2023-04-03T16:23:00;2.85;;;0.65;;
53151;SDS011;39234;53.158;6.322;2023-04-03T16:25:26;4.70;;;0.73;;
53151;SDS011;39234;53.158;6.322;2023-04-03T16:27:52;3.67;;;0.88;;
53151;SDS011;39234;53.158;6.322;2023-04-03T16:30:18;4.32;;;1.40;;
53151;SDS011;39234;53.158;6.322;2023-04-03T16:32:44;4.93;;;1.23;;
53151;SDS011;39234;53.158;6.322;2023-04-03T16:35:10;4.47;;;1.33;;
53151;SDS011;39234;53.158;6.322;2023-04-03T16:37:37;2.35;;;0.80;;
53151;SDS011;39234;53.158;6.322;2023-04-03T16:40:04;3.03;;;0.88;;
53151;SDS011;39234;53.158;6.322;2023-04-03T16:42:32;4.63;;;0.75;;
53151;SDS011;39234;53.158;6.322;2023-04-03T16:44:58;2.40;;;0.82;;
53151;SDS011;39234;53.158;6.322;2023-04-03T16:47:26;3.85;;;1.13;;
53151;SDS011;39234;53.158;6.322;2023-04-03T16:49:51;7.47;;;1.20;;
53151;SDS011;39234;53.158;6.322;2023-04-03T16:52:17;3.03;;;1.30;;